EZY27AW EGGD-EGKK
Flight info
| Callsign | EZY27AW |
|---|---|
| Flight time | 0h 23m |
| Altitude | 13000 |
| Route | YORQI N21 CAWZE P2 SIRIC |
| Aircraft | A319/M-SDE3FGHIRWY/LB1 |
Departure
| Time | 2026-05-04 11:12 |
|---|---|
| Airport | Bristol Airport (EGGD) |
Arrival
| Time | 2026-05-04 11:35 |
|---|---|
| Airport | London Gatwick Airport (EGKK) |
| Time | Latitude | Longitude | Altitude | Speed | Heading |
|---|---|---|---|---|---|
| 2026-05-04 10:42 | 51.38564 | -2.70908 | 611 ft | 0 kts | 267° |
| 2026-05-04 11:05 | 51.38515 | -2.70832 | 611 ft | 0 kts | 176° |
| 2026-05-04 11:08 | 51.38463 | -2.70936 | 614 ft | 11 kts | 266° |
| 2026-05-04 11:10 | 51.38413 | -2.72483 | 615 ft | 19 kts | 266° |
| 2026-05-04 11:12 | 51.38233 | -2.72804 | 628 ft | 71 kts | 86° |
| 2026-05-04 11:12 | 51.38280 | -2.71602 | 613 ft | 143 kts | 85° |
| 2026-05-04 11:12 | 51.38341 | -2.69974 | 1291 ft | 144 kts | 86° |
| 2026-05-04 11:12 | 51.38385 | -2.68373 | 2023 ft | 148 kts | 88° |
| 2026-05-04 11:13 | 51.38423 | -2.66598 | 2465 ft | 170 kts | 88° |
| 2026-05-04 11:13 | 51.38444 | -2.64602 | 2946 ft | 190 kts | 91° |
| 2026-05-04 11:13 | 51.38419 | -2.62374 | 3377 ft | 212 kts | 92° |
| 2026-05-04 11:13 | 51.38379 | -2.59902 | 3860 ft | 234 kts | 92° |
| 2026-05-04 11:14 | 51.38335 | -2.57198 | 4446 ft | 257 kts | 92° |
| 2026-05-04 11:14 | 51.38288 | -2.54280 | 5388 ft | 267 kts | 92° |
| 2026-05-04 11:14 | 51.38240 | -2.51283 | 6408 ft | 273 kts | 92° |
| 2026-05-04 11:16 | 51.37897 | -2.28088 | 10028 ft | 346 kts | 93° |
| 2026-05-04 11:16 | 51.37838 | -2.24304 | 10031 ft | 348 kts | 93° |
| 2026-05-04 11:16 | 51.37781 | -2.20431 | 10045 ft | 351 kts | 93° |
| 2026-05-04 11:17 | 51.37722 | -2.16496 | 10844 ft | 354 kts | 93° |
| 2026-05-04 11:17 | 51.37664 | -2.12541 | 11782 ft | 358 kts | 93° |
| 2026-05-04 11:19 | 51.36399 | -1.83507 | 15027 ft | 403 kts | 99° |
| 2026-05-04 11:19 | 51.36024 | -1.79051 | 15029 ft | 405 kts | 99° |
| 2026-05-04 11:19 | 51.35686 | -1.74845 | 15028 ft | 405 kts | 99° |
| 2026-05-04 11:19 | 51.35334 | -1.70248 | 15028 ft | 405 kts | 98° |
| 2026-05-04 11:20 | 51.35002 | -1.65781 | 15025 ft | 406 kts | 98° |
| 2026-05-04 11:20 | 51.34684 | -1.61464 | 15021 ft | 398 kts | 98° |
| 2026-05-04 11:20 | 51.34365 | -1.57093 | 15029 ft | 397 kts | 98° |
| 2026-05-04 11:20 | 51.34041 | -1.52678 | 15022 ft | 399 kts | 98° |
| 2026-05-04 11:22 | 51.32042 | -1.26346 | 15020 ft | 373 kts | 99° |
| 2026-05-04 11:22 | 51.31713 | -1.22230 | 15021 ft | 373 kts | 101° |
| 2026-05-04 11:23 | 51.31181 | -1.18706 | 15020 ft | 371 kts | 110° |
| 2026-05-04 11:23 | 51.30136 | -1.14912 | 15028 ft | 382 kts | 121° |
| 2026-05-04 11:24 | 51.20840 | -0.94893 | 13312 ft | 376 kts | 129° |
| 2026-05-04 11:25 | 51.19263 | -0.91577 | 12935 ft | 374 kts | 129° |
| 2026-05-04 11:25 | 51.17471 | -0.88624 | 12565 ft | 368 kts | 145° |
| 2026-05-04 11:25 | 51.16053 | -0.87172 | 12333 ft | 366 kts | 150° |
| 2026-05-04 11:26 | 51.11675 | -0.83042 | 11608 ft | 363 kts | 151° |
| 2026-05-04 11:27 | 50.98726 | -0.68159 | 9643 ft | 288 kts | 106° |
| 2026-05-04 11:28 | 50.98339 | -0.65043 | 8994 ft | 287 kts | 101° |
| 2026-05-04 11:28 | 50.98010 | -0.61944 | 8360 ft | 284 kts | 101° |
| 2026-05-04 11:28 | 50.97685 | -0.58858 | 7732 ft | 282 kts | 101° |
| 2026-05-04 11:28 | 50.97365 | -0.55844 | 7153 ft | 280 kts | 101° |
| 2026-05-04 11:29 | 50.97040 | -0.52820 | 6724 ft | 271 kts | 101° |
| 2026-05-04 11:29 | 50.96733 | -0.49984 | 6583 ft | 254 kts | 101° |
| 2026-05-04 11:29 | 50.96582 | -0.47243 | 6308 ft | 247 kts | 83° |
| 2026-05-04 11:29 | 50.97214 | -0.44790 | 6074 ft | 245 kts | 50° |
| 2026-05-04 11:31 | 51.08349 | -0.45401 | 3800 ft | 234 kts | 2° |
| 2026-05-04 11:33 | 51.12932 | -0.32584 | 1813 ft | 179 kts | 77° |
| 2026-05-04 11:33 | 51.13190 | -0.30737 | 1561 ft | 161 kts | 77° |
| 2026-05-04 11:33 | 51.13418 | -0.29094 | 1338 ft | 143 kts | 77° |
| 2026-05-04 11:34 | 51.13624 | -0.27612 | 1134 ft | 132 kts | 75° |
| 2026-05-04 11:34 | 51.13817 | -0.26226 | 952 ft | 126 kts | 75° |
| 2026-05-04 11:34 | 51.14003 | -0.24883 | 779 ft | 122 kts | 76° |
| 2026-05-04 11:34 | 51.14186 | -0.23567 | 582 ft | 122 kts | 75° |
| 2026-05-04 11:35 | 51.14369 | -0.22244 | 434 ft | 122 kts | 76° |
| 2026-05-04 11:35 | 51.14550 | -0.20933 | 273 ft | 120 kts | 76° |
| 2026-05-04 11:35 | 51.14727 | -0.19676 | 222 ft | 105 kts | 77° |
| 2026-05-04 11:35 | 51.14824 | -0.18959 | 213 ft | 23 kts | 78° |
| 2026-05-04 11:36 | 51.14850 | -0.18775 | 209 ft | 17 kts | 77° |
| 2026-05-04 11:36 | 51.14896 | -0.18603 | 215 ft | 17 kts | 56° |
| 2026-05-04 11:36 | 51.14969 | -0.18456 | 219 ft | 13 kts | 51° |
| 2026-05-04 11:36 | 51.15011 | -0.18371 | 213 ft | 10 kts | 51° |
| 2026-05-04 11:37 | 51.15057 | -0.18280 | 214 ft | 11 kts | 51° |
| 2026-05-04 11:37 | 51.15107 | -0.18181 | 215 ft | 10 kts | 55° |
| 2026-05-04 11:37 | 51.15128 | -0.18079 | 213 ft | 10 kts | 78° |
| 2026-05-04 11:37 | 51.15142 | -0.17969 | 213 ft | 11 kts | 77° |
| 2026-05-04 11:38 | 51.15160 | -0.17843 | 220 ft | 13 kts | 77° |
| 2026-05-04 11:38 | 51.15181 | -0.17695 | 213 ft | 14 kts | 77° |
| 2026-05-04 11:38 | 51.15203 | -0.17538 | 217 ft | 14 kts | 77° |
| 2026-05-04 11:38 | 51.15222 | -0.17400 | 215 ft | 14 kts | 75° |
| 2026-05-04 11:39 | 51.15297 | -0.17352 | 210 ft | 13 kts | 348° |
| 2026-05-04 11:39 | 51.15392 | -0.17385 | 217 ft | 14 kts | 347° |
| 2026-05-04 11:40 | 51.15712 | -0.17863 | 211 ft | 7 kts | 258° |
| 2026-05-04 11:41 | 51.15706 | -0.17909 | 210 ft | 6 kts | 257° |
| 2026-05-04 11:41 | 51.15698 | -0.17991 | 210 ft | 8 kts | 277° |
| 2026-05-04 11:41 | 51.15729 | -0.17988 | 210 ft | 5 kts | 35° |
| 2026-05-04 11:41 | 51.15760 | -0.17955 | 216 ft | 4 kts | 32° |
| 2026-05-04 11:42 | 51.15772 | -0.17942 | 210 ft | 1 kts | 33° |
| 2026-05-04 11:42 | 51.15777 | -0.17938 | 210 ft | 0 kts | 32° |
| 2026-05-04 11:45 | 51.15776 | -0.17938 | 210 ft | 0 kts | 32° |